sensor_id;sensor_type;location;lat;lon;timestamp;P1;durP1;ratioP1;P2;durP2;ratioP2
37097;SDS011;63608;49.572;12.348;2022-10-16T00:00:07;6.77;;;6.10;;
37097;SDS011;63608;49.572;12.348;2022-10-16T00:02:10;6.43;;;5.93;;
37097;SDS011;63608;49.572;12.348;2022-10-16T00:04:13;7.37;;;6.67;;
37097;SDS011;63608;49.572;12.348;2022-10-16T00:06:15;7.03;;;6.40;;
37097;SDS011;63608;49.572;12.348;2022-10-16T00:08:19;5.80;;;5.40;;
37097;SDS011;63608;49.572;12.348;2022-10-16T00:10:26;6.80;;;6.10;;
37097;SDS011;63608;49.572;12.348;2022-10-16T00:12:28;5.43;;;5.00;;
37097;SDS011;63608;49.572;12.348;2022-10-16T00:14:31;5.53;;;5.00;;
37097;SDS011;63608;49.572;12.348;2022-10-16T00:16:33;7.23;;;5.20;;
37097;SDS011;63608;49.572;12.348;2022-10-16T00:18:38;5.90;;;5.50;;
37097;SDS011;63608;49.572;12.348;2022-10-16T00:20:43;5.60;;;5.10;;
37097;SDS011;63608;49.572;12.348;2022-10-16T00:22:51;6.33;;;5.93;;
37097;SDS011;63608;49.572;12.348;2022-10-16T00:24:53;5.90;;;5.40;;
37097;SDS011;63608;49.572;12.348;2022-10-16T00:26:59;5.80;;;5.30;;
37097;SDS011;63608;49.572;12.348;2022-10-16T00:29:02;5.67;;;4.30;;
37097;SDS011;63608;49.572;12.348;2022-10-16T00:31:09;4.93;;;4.63;;
37097;SDS011;63608;49.572;12.348;2022-10-16T00:33:12;4.10;;;3.50;;
37097;SDS011;63608;49.572;12.348;2022-10-16T00:35:14;8.20;;;4.70;;
37097;SDS011;63608;49.572;12.348;2022-10-16T00:37:21;3.87;;;3.57;;
37097;SDS011;63608;49.572;12.348;2022-10-16T00:39:23;3.87;;;3.57;;
37097;SDS011;63608;49.572;12.348;2022-10-16T00:41:27;4.33;;;4.03;;
37097;SDS011;63608;49.572;12.348;2022-10-16T00:43:48;3.93;;;3.63;;
37097;SDS011;63608;49.572;12.348;2022-10-16T00:45:55;5.90;;;4.17;;
37097;SDS011;63608;49.572;12.348;2022-10-16T00:47:57;3.80;;;3.40;;
37097;SDS011;63608;49.572;12.348;2022-10-16T00:50:00;4.27;;;3.50;;
37097;SDS011;63608;49.572;12.348;2022-10-16T00:52:08;3.80;;;3.50;;
37097;SDS011;63608;49.572;12.348;2022-10-16T00:54:13;3.33;;;3.13;;
37097;SDS011;63608;49.572;12.348;2022-10-16T00:56:17;3.53;;;3.27;;
37097;SDS011;63608;49.572;12.348;2022-10-16T00:58:20;3.70;;;3.50;;
37097;SDS011;63608;49.572;12.348;2022-10-16T01:00:34;3.43;;;3.23;;
37097;SDS011;63608;49.572;12.348;2022-10-16T01:02:36;3.93;;;3.23;;
37097;SDS011;63608;49.572;12.348;2022-10-16T01:04:39;4.07;;;3.47;;
37097;SDS011;63608;49.572;12.348;2022-10-16T01:06:43;6.40;;;3.63;;
37097;SDS011;63608;49.572;12.348;2022-10-16T01:08:51;4.00;;;3.70;;
37097;SDS011;63608;49.572;12.348;2022-10-16T01:11:05;4.10;;;3.63;;
37097;SDS011;63608;49.572;12.348;2022-10-16T01:13:14;4.23;;;3.93;;
37097;SDS011;63608;49.572;12.348;2022-10-16T01:15:20;5.33;;;3.80;;
37097;SDS011;63608;49.572;12.348;2022-10-16T01:17:29;4.40;;;4.03;;
37097;SDS011;63608;49.572;12.348;2022-10-16T01:19:40;7.27;;;3.90;;
37097;SDS011;63608;49.572;12.348;2022-10-16T01:22:02;4.17;;;3.70;;
37097;SDS011;63608;49.572;12.348;2022-10-16T01:24:06;4.80;;;4.23;;
37097;SDS011;63608;49.572;12.348;2022-10-16T01:26:15;5.17;;;3.63;;
37097;SDS011;63608;49.572;12.348;2022-10-16T01:28:32;4.17;;;3.87;;
37097;SDS011;63608;49.572;12.348;2022-10-16T01:30:39;5.93;;;4.60;;
37097;SDS011;63608;49.572;12.348;2022-10-16T01:32:43;6.97;;;3.70;;
37097;SDS011;63608;49.572;12.348;2022-10-16T01:34:50;4.30;;;3.50;;
37097;SDS011;63608;49.572;12.348;2022-10-16T01:36:55;4.53;;;4.17;;
37097;SDS011;63608;49.572;12.348;2022-10-16T01:39:00;7.80;;;4.10;;
37097;SDS011;63608;49.572;12.348;2022-10-16T01:41:04;4.17;;;3.87;;
37097;SDS011;63608;49.572;12.348;2022-10-16T01:43:10;8.13;;;4.13;;
37097;SDS011;63608;49.572;12.348;2022-10-16T01:45:16;4.90;;;4.13;;
37097;SDS011;63608;49.572;12.348;2022-10-16T01:47:21;4.30;;;4.00;;
37097;SDS011;63608;49.572;12.348;2022-10-16T01:49:26;4.27;;;3.87;;
37097;SDS011;63608;49.572;12.348;2022-10-16T01:51:32;4.20;;;3.80;;
37097;SDS011;63608;49.572;12.348;2022-10-16T01:53:36;4.10;;;3.90;;
37097;SDS011;63608;49.572;12.348;2022-10-16T01:55:39;4.43;;;4.13;;
37097;SDS011;63608;49.572;12.348;2022-10-16T01:57:46;3.77;;;3.53;;
37097;SDS011;63608;49.572;12.348;2022-10-16T01:59:50;4.30;;;3.90;;
37097;SDS011;63608;49.572;12.348;2022-10-16T02:01:56;4.50;;;4.10;;
37097;SDS011;63608;49.572;12.348;2022-10-16T02:04:02;4.20;;;3.80;;
37097;SDS011;63608;49.572;12.348;2022-10-16T02:06:07;4.40;;;3.90;;
37097;SDS011;63608;49.572;12.348;2022-10-16T02:08:09;4.23;;;3.80;;
37097;SDS011;63608;49.572;12.348;2022-10-16T02:10:12;4.07;;;3.77;;
37097;SDS011;63608;49.572;12.348;2022-10-16T02:12:25;4.97;;;4.47;;
37097;SDS011;63608;49.572;12.348;2022-10-16T02:14:33;3.93;;;3.60;;
37097;SDS011;63608;49.572;12.348;2022-10-16T02:16:41;10.80;;;4.50;;
37097;SDS011;63608;49.572;12.348;2022-10-16T02:18:47;5.43;;;4.13;;
37097;SDS011;63608;49.572;12.348;2022-10-16T02:20:51;5.20;;;3.60;;
37097;SDS011;63608;49.572;12.348;2022-10-16T02:22:57;5.37;;;4.00;;
37097;SDS011;63608;49.572;12.348;2022-10-16T02:25:02;6.53;;;4.00;;
37097;SDS011;63608;49.572;12.348;2022-10-16T02:27:10;6.23;;;3.50;;
37097;SDS011;63608;49.572;12.348;2022-10-16T02:29:18;3.60;;;3.40;;
37097;SDS011;63608;49.572;12.348;2022-10-16T02:31:23;3.40;;;3.20;;
37097;SDS011;63608;49.572;12.348;2022-10-16T02:33:34;9.33;;;3.90;;
37097;SDS011;63608;49.572;12.348;2022-10-16T02:35:40;4.37;;;3.60;;
37097;SDS011;63608;49.572;12.348;2022-10-16T02:37:43;4.47;;;4.07;;
37097;SDS011;63608;49.572;12.348;2022-10-16T02:39:46;6.90;;;4.17;;
37097;SDS011;63608;49.572;12.348;2022-10-16T02:41:48;8.00;;;3.63;;
37097;SDS011;63608;49.572;12.348;2022-10-16T02:43:54;5.67;;;4.00;;
37097;SDS011;63608;49.572;12.348;2022-10-16T02:46:04;7.23;;;3.43;;
37097;SDS011;63608;49.572;12.348;2022-10-16T02:48:12;3.73;;;3.27;;
37097;SDS011;63608;49.572;12.348;2022-10-16T02:50:15;3.97;;;3.67;;
37097;SDS011;63608;49.572;12.348;2022-10-16T02:52:19;4.43;;;3.80;;
37097;SDS011;63608;49.572;12.348;2022-10-16T02:54:25;6.87;;;3.73;;
37097;SDS011;63608;49.572;12.348;2022-10-16T02:56:27;5.27;;;3.00;;
37097;SDS011;63608;49.572;12.348;2022-10-16T02:58:31;4.53;;;3.50;;
37097;SDS011;63608;49.572;12.348;2022-10-16T03:00:35;3.97;;;3.67;;
37097;SDS011;63608;49.572;12.348;2022-10-16T03:02:40;3.20;;;2.90;;
37097;SDS011;63608;49.572;12.348;2022-10-16T03:04:43;6.17;;;3.23;;
37097;SDS011;63608;49.572;12.348;2022-10-16T03:06:45;8.70;;;3.40;;
37097;SDS011;63608;49.572;12.348;2022-10-16T03:08:49;3.83;;;3.53;;
37097;SDS011;63608;49.572;12.348;2022-10-16T03:10:51;5.30;;;3.70;;
37097;SDS011;63608;49.572;12.348;2022-10-16T03:12:57;3.80;;;3.37;;
37097;SDS011;63608;49.572;12.348;2022-10-16T03:15:00;4.30;;;3.90;;
37097;SDS011;63608;49.572;12.348;2022-10-16T03:17:01;8.53;;;3.80;;
37097;SDS011;63608;49.572;12.348;2022-10-16T03:19:04;6.53;;;4.00;;
37097;SDS011;63608;49.572;12.348;2022-10-16T03:21:10;3.90;;;3.50;;
37097;SDS011;63608;49.572;12.348;2022-10-16T03:23:12;4.50;;;4.10;;
37097;SDS011;63608;49.572;12.348;2022-10-16T03:25:16;3.93;;;3.73;;
37097;SDS011;63608;49.572;12.348;2022-10-16T03:27:19;4.43;;;3.57;;
37097;SDS011;63608;49.572;12.348;2022-10-16T03:29:21;4.63;;;3.80;;
37097;SDS011;63608;49.572;12.348;2022-10-16T03:31:26;4.40;;;3.67;;
37097;SDS011;63608;49.572;12.348;2022-10-16T03:33:30;3.57;;;3.27;;
37097;SDS011;63608;49.572;12.348;2022-10-16T03:35:32;3.70;;;3.40;;
37097;SDS011;63608;49.572;12.348;2022-10-16T03:37:41;4.67;;;4.20;;
37097;SDS011;63608;49.572;12.348;2022-10-16T03:39:43;3.67;;;3.37;;
37097;SDS011;63608;49.572;12.348;2022-10-16T03:41:48;3.70;;;3.40;;
37097;SDS011;63608;49.572;12.348;2022-10-16T03:43:50;4.90;;;3.60;;
37097;SDS011;63608;49.572;12.348;2022-10-16T03:45:59;3.57;;;3.37;;
37097;SDS011;63608;49.572;12.348;2022-10-16T03:48:02;4.43;;;3.23;;
37097;SDS011;63608;49.572;12.348;2022-10-16T03:50:05;4.43;;;3.60;;
37097;SDS011;63608;49.572;12.348;2022-10-16T03:52:08;4.33;;;3.17;;
37097;SDS011;63608;49.572;12.348;2022-10-16T03:54:17;3.43;;;3.13;;
37097;SDS011;63608;49.572;12.348;2022-10-16T03:56:28;3.10;;;2.90;;
37097;SDS011;63608;49.572;12.348;2022-10-16T03:58:33;3.77;;;2.80;;
37097;SDS011;63608;49.572;12.348;2022-10-16T04:00:39;3.53;;;2.90;;
37097;SDS011;63608;49.572;12.348;2022-10-16T04:02:49;5.00;;;3.00;;
37097;SDS011;63608;49.572;12.348;2022-10-16T04:04:52;3.80;;;3.60;;
37097;SDS011;63608;49.572;12.348;2022-10-16T04:06:58;4.77;;;3.30;;
37097;SDS011;63608;49.572;12.348;2022-10-16T04:09:09;4.87;;;3.40;;
37097;SDS011;63608;49.572;12.348;2022-10-16T04:11:11;3.80;;;3.50;;
37097;SDS011;63608;49.572;12.348;2022-10-16T04:13:14;13.10;;;3.50;;
37097;SDS011;63608;49.572;12.348;2022-10-16T04:15:27;3.50;;;3.30;;
37097;SDS011;63608;49.572;12.348;2022-10-16T04:17:32;4.17;;;3.07;;
37097;SDS011;63608;49.572;12.348;2022-10-16T04:19:34;3.80;;;3.40;;
37097;SDS011;63608;49.572;12.348;2022-10-16T04:21:37;3.30;;;3.00;;
37097;SDS011;63608;49.572;12.348;2022-10-16T04:23:39;4.13;;;3.70;;
37097;SDS011;63608;49.572;12.348;2022-10-16T04:25:41;3.67;;;3.30;;
37097;SDS011;63608;49.572;12.348;2022-10-16T04:27:45;3.83;;;3.40;;
37097;SDS011;63608;49.572;12.348;2022-10-16T04:29:47;3.30;;;3.00;;
37097;SDS011;63608;49.572;12.348;2022-10-16T04:31:53;4.53;;;3.00;;
37097;SDS011;63608;49.572;12.348;2022-10-16T04:33:56;3.90;;;3.60;;
37097;SDS011;63608;49.572;12.348;2022-10-16T04:35:58;3.37;;;3.13;;
37097;SDS011;63608;49.572;12.348;2022-10-16T04:38:01;3.50;;;3.30;;
37097;SDS011;63608;49.572;12.348;2022-10-16T04:40:04;3.20;;;2.90;;
37097;SDS011;63608;49.572;12.348;2022-10-16T04:42:13;4.57;;;3.00;;
37097;SDS011;63608;49.572;12.348;2022-10-16T04:44:16;3.63;;;2.93;;
37097;SDS011;63608;49.572;12.348;2022-10-16T04:46:21;3.97;;;3.50;;
37097;SDS011;63608;49.572;12.348;2022-10-16T04:48:25;5.57;;;3.33;;
37097;SDS011;63608;49.572;12.348;2022-10-16T04:50:34;3.90;;;3.60;;
37097;SDS011;63608;49.572;12.348;2022-10-16T04:52:43;5.60;;;3.10;;
37097;SDS011;63608;49.572;12.348;2022-10-16T04:55:02;3.70;;;3.40;;
37097;SDS011;63608;49.572;12.348;2022-10-16T04:57:05;3.53;;;3.23;;
37097;SDS011;63608;49.572;12.348;2022-10-16T04:59:10;3.93;;;3.47;;
37097;SDS011;63608;49.572;12.348;2022-10-16T05:01:12;3.37;;;3.07;;
37097;SDS011;63608;49.572;12.348;2022-10-16T05:03:32;3.87;;;3.30;;
37097;SDS011;63608;49.572;12.348;2022-10-16T05:05:35;3.30;;;3.13;;
37097;SDS011;63608;49.572;12.348;2022-10-16T05:07:48;3.03;;;2.93;;
37097;SDS011;63608;49.572;12.348;2022-10-16T05:09:51;3.20;;;3.07;;
37097;SDS011;63608;49.572;12.348;2022-10-16T05:11:53;3.30;;;3.10;;
37097;SDS011;63608;49.572;12.348;2022-10-16T05:13:55;4.30;;;3.43;;
37097;SDS011;63608;49.572;12.348;2022-10-16T05:16:00;3.60;;;3.30;;
37097;SDS011;63608;49.572;12.348;2022-10-16T05:18:02;3.13;;;2.93;;
37097;SDS011;63608;49.572;12.348;2022-10-16T05:20:11;3.30;;;3.00;;
37097;SDS011;63608;49.572;12.348;2022-10-16T05:22:15;3.63;;;3.40;;
37097;SDS011;63608;49.572;12.348;2022-10-16T05:24:18;3.73;;;2.97;;
37097;SDS011;63608;49.572;12.348;2022-10-16T05:26:20;3.77;;;3.03;;
37097;SDS011;63608;49.572;12.348;2022-10-16T05:28:23;4.23;;;3.20;;
37097;SDS011;63608;49.572;12.348;2022-10-16T05:30:25;3.40;;;2.90;;
37097;SDS011;63608;49.572;12.348;2022-10-16T05:32:27;3.30;;;3.10;;
37097;SDS011;63608;49.572;12.348;2022-10-16T05:34:30;3.50;;;3.00;;
37097;SDS011;63608;49.572;12.348;2022-10-16T05:36:34;3.20;;;3.00;;
37097;SDS011;63608;49.572;12.348;2022-10-16T05:38:36;3.60;;;2.90;;
37097;SDS011;63608;49.572;12.348;2022-10-16T05:40:39;3.33;;;3.03;;
37097;SDS011;63608;49.572;12.348;2022-10-16T05:42:42;3.20;;;3.00;;
37097;SDS011;63608;49.572;12.348;2022-10-16T05:44:44;3.40;;;3.00;;
37097;SDS011;63608;49.572;12.348;2022-10-16T05:46:46;3.13;;;2.90;;
37097;SDS011;63608;49.572;12.348;2022-10-16T05:48:51;3.73;;;3.43;;
37097;SDS011;63608;49.572;12.348;2022-10-16T05:50:57;3.43;;;3.13;;
37097;SDS011;63608;49.572;12.348;2022-10-16T05:53:01;3.17;;;3.07;;
37097;SDS011;63608;49.572;12.348;2022-10-16T05:55:05;4.60;;;3.30;;
37097;SDS011;63608;49.572;12.348;2022-10-16T05:57:09;10.23;;;3.10;;
37097;SDS011;63608;49.572;12.348;2022-10-16T05:59:17;5.10;;;3.10;;
37097;SDS011;63608;49.572;12.348;2022-10-16T06:01:20;5.33;;;3.03;;
37097;SDS011;63608;49.572;12.348;2022-10-16T06:03:24;4.83;;;2.90;;
37097;SDS011;63608;49.572;12.348;2022-10-16T06:05:26;3.20;;;2.90;;
37097;SDS011;63608;49.572;12.348;2022-10-16T06:07:29;3.07;;;2.83;;
37097;SDS011;63608;49.572;12.348;2022-10-16T06:09:42;4.07;;;3.70;;
37097;SDS011;63608;49.572;12.348;2022-10-16T06:11:48;10.60;;;3.40;;
37097;SDS011;63608;49.572;12.348;2022-10-16T06:13:51;3.77;;;3.47;;
37097;SDS011;63608;49.572;12.348;2022-10-16T06:15:56;4.03;;;3.40;;
37097;SDS011;63608;49.572;12.348;2022-10-16T06:17:58;3.30;;;3.07;;
37097;SDS011;63608;49.572;12.348;2022-10-16T06:20:00;3.50;;;3.20;;
37097;SDS011;63608;49.572;12.348;2022-10-16T06:22:07;2.80;;;2.60;;
37097;SDS011;63608;49.572;12.348;2022-10-16T06:24:09;4.23;;;2.80;;
37097;SDS011;63608;49.572;12.348;2022-10-16T06:26:17;4.73;;;3.10;;
37097;SDS011;63608;49.572;12.348;2022-10-16T06:28:20;7.80;;;3.30;;
37097;SDS011;63608;49.572;12.348;2022-10-16T06:30:22;3.47;;;3.17;;
37097;SDS011;63608;49.572;12.348;2022-10-16T06:32:27;4.47;;;3.10;;
37097;SDS011;63608;49.572;12.348;2022-10-16T06:34:30;3.97;;;3.53;;
37097;SDS011;63608;49.572;12.348;2022-10-16T06:36:32;5.30;;;3.20;;
37097;SDS011;63608;49.572;12.348;2022-10-16T06:38:34;4.30;;;3.00;;
37097;SDS011;63608;49.572;12.348;2022-10-16T06:40:37;3.63;;;3.10;;
37097;SDS011;63608;49.572;12.348;2022-10-16T06:42:42;7.60;;;3.47;;
37097;SDS011;63608;49.572;12.348;2022-10-16T06:44:45;3.60;;;3.30;;
37097;SDS011;63608;49.572;12.348;2022-10-16T06:46:49;3.70;;;3.17;;
37097;SDS011;63608;49.572;12.348;2022-10-16T06:48:54;5.80;;;3.40;;
37097;SDS011;63608;49.572;12.348;2022-10-16T06:50:58;3.83;;;3.40;;
37097;SDS011;63608;49.572;12.348;2022-10-16T06:53:02;5.00;;;3.30;;
37097;SDS011;63608;49.572;12.348;2022-10-16T06:55:05;7.93;;;3.50;;
37097;SDS011;63608;49.572;12.348;2022-10-16T06:57:08;4.10;;;3.80;;
37097;SDS011;63608;49.572;12.348;2022-10-16T06:59:16;3.60;;;3.30;;
37097;SDS011;63608;49.572;12.348;2022-10-16T07:01:19;3.20;;;3.00;;
37097;SDS011;63608;49.572;12.348;2022-10-16T07:03:22;3.23;;;2.93;;
37097;SDS011;63608;49.572;12.348;2022-10-16T07:05:26;3.10;;;2.90;;
37097;SDS011;63608;49.572;12.348;2022-10-16T07:07:29;4.90;;;2.83;;
37097;SDS011;63608;49.572;12.348;2022-10-16T07:09:35;5.80;;;3.20;;
37097;SDS011;63608;49.572;12.348;2022-10-16T07:11:38;6.87;;;2.70;;
37097;SDS011;63608;49.572;12.348;2022-10-16T07:13:41;4.20;;;3.10;;
37097;SDS011;63608;49.572;12.348;2022-10-16T07:15:49;3.33;;;3.03;;
37097;SDS011;63608;49.572;12.348;2022-10-16T07:17:52;3.13;;;2.90;;
37097;SDS011;63608;49.572;12.348;2022-10-16T07:19:56;3.83;;;3.10;;
37097;SDS011;63608;49.572;12.348;2022-10-16T07:21:58;5.80;;;3.67;;
37097;SDS011;63608;49.572;12.348;2022-10-16T07:24:01;3.10;;;2.90;;
37097;SDS011;63608;49.572;12.348;2022-10-16T07:26:04;5.50;;;3.43;;
37097;SDS011;63608;49.572;12.348;2022-10-16T07:28:08;3.63;;;3.43;;
37097;SDS011;63608;49.572;12.348;2022-10-16T07:30:13;7.20;;;3.60;;
37097;SDS011;63608;49.572;12.348;2022-10-16T07:32:16;4.83;;;3.13;;
37097;SDS011;63608;49.572;12.348;2022-10-16T07:34:25;3.90;;;3.37;;
37097;SDS011;63608;49.572;12.348;2022-10-16T07:36:28;4.50;;;3.67;;
37097;SDS011;63608;49.572;12.348;2022-10-16T07:38:33;4.00;;;3.10;;
37097;SDS011;63608;49.572;12.348;2022-10-16T07:40:38;14.90;;;3.47;;
37097;SDS011;63608;49.572;12.348;2022-10-16T07:42:42;3.10;;;2.80;;
37097;SDS011;63608;49.572;12.348;2022-10-16T07:44:48;4.30;;;2.93;;
37097;SDS011;63608;49.572;12.348;2022-10-16T07:46:52;3.33;;;2.97;;
37097;SDS011;63608;49.572;12.348;2022-10-16T07:48:56;6.27;;;3.30;;
37097;SDS011;63608;49.572;12.348;2022-10-16T07:50:58;3.87;;;3.50;;
37097;SDS011;63608;49.572;12.348;2022-10-16T07:53:01;3.20;;;3.00;;
37097;SDS011;63608;49.572;12.348;2022-10-16T07:55:04;3.40;;;2.50;;
37097;SDS011;63608;49.572;12.348;2022-10-16T07:57:07;4.40;;;2.90;;
37097;SDS011;63608;49.572;12.348;2022-10-16T07:59:09;3.20;;;3.00;;
37097;SDS011;63608;49.572;12.348;2022-10-16T08:01:13;5.17;;;2.80;;
37097;SDS011;63608;49.572;12.348;2022-10-16T08:03:16;3.60;;;2.80;;
37097;SDS011;63608;49.572;12.348;2022-10-16T08:05:19;3.30;;;2.70;;
37097;SDS011;63608;49.572;12.348;2022-10-16T08:07:23;3.43;;;2.60;;
37097;SDS011;63608;49.572;12.348;2022-10-16T08:09:25;3.27;;;2.97;;
37097;SDS011;63608;49.572;12.348;2022-10-16T08:11:27;3.30;;;3.00;;
37097;SDS011;63608;49.572;12.348;2022-10-16T08:13:32;2.57;;;2.40;;
37097;SDS011;63608;49.572;12.348;2022-10-16T08:15:35;3.80;;;2.80;;
37097;SDS011;63608;49.572;12.348;2022-10-16T08:17:37;4.40;;;2.90;;
37097;SDS011;63608;49.572;12.348;2022-10-16T08:19:39;3.60;;;2.70;;
37097;SDS011;63608;49.572;12.348;2022-10-16T08:21:46;3.67;;;2.93;;
37097;SDS011;63608;49.572;12.348;2022-10-16T08:23:49;2.70;;;2.50;;
37097;SDS011;63608;49.572;12.348;2022-10-16T08:25:51;2.80;;;2.70;;
37097;SDS011;63608;49.572;12.348;2022-10-16T08:27:54;2.60;;;2.40;;
37097;SDS011;63608;49.572;12.348;2022-10-16T08:30:02;3.30;;;3.10;;
37097;SDS011;63608;49.572;12.348;2022-10-16T08:32:05;3.70;;;2.57;;
37097;SDS011;63608;49.572;12.348;2022-10-16T08:34:11;3.90;;;3.60;;
37097;SDS011;63608;49.572;12.348;2022-10-16T08:36:14;3.07;;;2.87;;
37097;SDS011;63608;49.572;12.348;2022-10-16T08:38:20;3.00;;;2.80;;
37097;SDS011;63608;49.572;12.348;2022-10-16T08:40:23;2.80;;;2.60;;
37097;SDS011;63608;49.572;12.348;2022-10-16T08:42:32;3.10;;;2.40;;
37097;SDS011;63608;49.572;12.348;2022-10-16T08:47:16;6.43;;;2.70;;
37097;SDS011;63608;49.572;12.348;2022-10-16T08:49:22;3.17;;;2.63;;
37097;SDS011;63608;49.572;12.348;2022-10-16T08:51:26;2.57;;;2.47;;
37097;SDS011;63608;49.572;12.348;2022-10-16T08:53:33;4.90;;;2.57;;
37097;SDS011;63608;49.572;12.348;2022-10-16T08:55:45;6.53;;;2.50;;
37097;SDS011;63608;49.572;12.348;2022-10-16T08:57:48;4.43;;;2.87;;
37097;SDS011;63608;49.572;12.348;2022-10-16T08:59:51;2.30;;;2.20;;
37097;SDS011;63608;49.572;12.348;2022-10-16T09:01:54;2.43;;;2.33;;
37097;SDS011;63608;49.572;12.348;2022-10-16T09:04:04;2.60;;;2.40;;
37097;SDS011;63608;49.572;12.348;2022-10-16T09:06:27;2.40;;;2.30;;
37097;SDS011;63608;49.572;12.348;2022-10-16T09:08:39;4.83;;;2.23;;
37097;SDS011;63608;49.572;12.348;2022-10-16T09:10:55;2.30;;;2.10;;
37097;SDS011;63608;49.572;12.348;2022-10-16T09:13:02;3.90;;;2.63;;
37097;SDS011;63608;49.572;12.348;2022-10-16T09:15:15;3.33;;;2.37;;
37097;SDS011;63608;49.572;12.348;2022-10-16T09:17:29;2.57;;;2.40;;
37097;SDS011;63608;49.572;12.348;2022-10-16T09:19:36;3.77;;;2.60;;
37097;SDS011;63608;49.572;12.348;2022-10-16T09:21:40;5.30;;;2.43;;
37097;SDS011;63608;49.572;12.348;2022-10-16T09:23:45;2.47;;;2.37;;
37097;SDS011;63608;49.572;12.348;2022-10-16T09:25:58;2.87;;;2.67;;
37097;SDS011;63608;49.572;12.348;2022-10-16T09:28:00;5.67;;;2.33;;
37097;SDS011;63608;49.572;12.348;2022-10-16T09:30:06;4.00;;;2.30;;
37097;SDS011;63608;49.572;12.348;2022-10-16T09:32:19;2.83;;;2.57;;
37097;SDS011;63608;49.572;12.348;2022-10-16T09:34:24;2.83;;;2.63;;
37097;SDS011;63608;49.572;12.348;2022-10-16T09:36:30;3.47;;;2.53;;
37097;SDS011;63608;49.572;12.348;2022-10-16T09:38:40;2.60;;;2.50;;
37097;SDS011;63608;49.572;12.348;2022-10-16T09:40:44;5.30;;;2.57;;
37097;SDS011;63608;49.572;12.348;2022-10-16T09:42:56;2.97;;;2.77;;
37097;SDS011;63608;49.572;12.348;2022-10-16T09:45:02;2.80;;;2.70;;
37097;SDS011;63608;49.572;12.348;2022-10-16T09:47:11;2.43;;;2.33;;
37097;SDS011;63608;49.572;12.348;2022-10-16T09:49:19;2.50;;;2.30;;
37097;SDS011;63608;49.572;12.348;2022-10-16T09:51:24;3.00;;;2.70;;
37097;SDS011;63608;49.572;12.348;2022-10-16T09:53:37;4.33;;;2.63;;
37097;SDS011;63608;49.572;12.348;2022-10-16T09:55:52;4.60;;;2.43;;
37097;SDS011;63608;49.572;12.348;2022-10-16T09:57:56;2.67;;;2.47;;
37097;SDS011;63608;49.572;12.348;2022-10-16T09:59:58;4.57;;;2.40;;
37097;SDS011;63608;49.572;12.348;2022-10-16T10:02:01;2.63;;;2.20;;
37097;SDS011;63608;49.572;12.348;2022-10-16T10:04:06;2.67;;;2.50;;
37097;SDS011;63608;49.572;12.348;2022-10-16T10:06:16;7.53;;;2.50;;
37097;SDS011;63608;49.572;12.348;2022-10-16T10:08:23;6.40;;;2.47;;
37097;SDS011;63608;49.572;12.348;2022-10-16T10:10:26;3.93;;;2.40;;
37097;SDS011;63608;49.572;12.348;2022-10-16T10:12:32;2.33;;;2.13;;
37097;SDS011;63608;49.572;12.348;2022-10-16T10:14:37;2.80;;;2.60;;
37097;SDS011;63608;49.572;12.348;2022-10-16T10:16:42;2.53;;;2.33;;
37097;SDS011;63608;49.572;12.348;2022-10-16T10:18:45;2.70;;;2.50;;
37097;SDS011;63608;49.572;12.348;2022-10-16T10:20:56;4.80;;;2.50;;
37097;SDS011;63608;49.572;12.348;2022-10-16T10:23:01;6.00;;;2.40;;
37097;SDS011;63608;49.572;12.348;2022-10-16T10:25:18;3.20;;;2.20;;
37097;SDS011;63608;49.572;12.348;2022-10-16T10:27:29;2.50;;;2.30;;
37097;SDS011;63608;49.572;12.348;2022-10-16T10:29:43;2.40;;;2.20;;
37097;SDS011;63608;49.572;12.348;2022-10-16T10:31:54;2.80;;;2.60;;
37097;SDS011;63608;49.572;12.348;2022-10-16T10:34:04;4.53;;;2.00;;
37097;SDS011;63608;49.572;12.348;2022-10-16T10:36:27;6.40;;;2.40;;
37097;SDS011;63608;49.572;12.348;2022-10-16T10:38:44;2.60;;;2.20;;
37097;SDS011;63608;49.572;12.348;2022-10-16T10:40:52;4.97;;;2.30;;
37097;SDS011;63608;49.572;12.348;2022-10-16T10:43:03;2.50;;;2.30;;
37097;SDS011;63608;49.572;12.348;2022-10-16T10:45:15;4.23;;;2.27;;
37097;SDS011;63608;49.572;12.348;2022-10-16T10:47:22;3.43;;;2.30;;
37097;SDS011;63608;49.572;12.348;2022-10-16T10:49:40;5.70;;;2.10;;
37097;SDS011;63608;49.572;12.348;2022-10-16T10:51:53;2.87;;;2.57;;
37097;SDS011;63608;49.572;12.348;2022-10-16T10:54:05;2.80;;;2.70;;
37097;SDS011;63608;49.572;12.348;2022-10-16T10:56:20;4.10;;;2.27;;
37097;SDS011;63608;49.572;12.348;2022-10-16T11:01:07;2.80;;;2.70;;
37097;SDS011;63608;49.572;12.348;2022-10-16T11:03:13;3.30;;;2.40;;
37097;SDS011;63608;49.572;12.348;2022-10-16T11:05:33;2.40;;;2.20;;
37097;SDS011;63608;49.572;12.348;2022-10-16T11:07:42;2.60;;;2.40;;
37097;SDS011;63608;49.572;12.348;2022-10-16T11:09:49;5.87;;;2.70;;
37097;SDS011;63608;49.572;12.348;2022-10-16T11:11:56;3.17;;;2.70;;
37097;SDS011;63608;49.572;12.348;2022-10-16T11:14:02;9.00;;;2.60;;
37097;SDS011;63608;49.572;12.348;2022-10-16T11:16:11;2.60;;;2.50;;
37097;SDS011;63608;49.572;12.348;2022-10-16T11:18:18;2.63;;;2.30;;
37097;SDS011;63608;49.572;12.348;2022-10-16T11:20:23;2.50;;;2.40;;
37097;SDS011;63608;49.572;12.348;2022-10-16T11:22:27;2.70;;;2.50;;
37097;SDS011;63608;49.572;12.348;2022-10-16T11:24:35;4.40;;;2.60;;
37097;SDS011;63608;49.572;12.348;2022-10-16T11:26:44;2.70;;;2.50;;
37097;SDS011;63608;49.572;12.348;2022-10-16T11:28:49;2.60;;;2.40;;
37097;SDS011;63608;49.572;12.348;2022-10-16T11:31:23;2.53;;;2.23;;
37097;SDS011;63608;49.572;12.348;2022-10-16T11:33:32;2.73;;;2.53;;
37097;SDS011;63608;49.572;12.348;2022-10-16T11:35:41;2.37;;;2.17;;
37097;SDS011;63608;49.572;12.348;2022-10-16T11:37:46;3.13;;;2.83;;
37097;SDS011;63608;49.572;12.348;2022-10-16T11:39:49;2.77;;;2.57;;
37097;SDS011;63608;49.572;12.348;2022-10-16T11:41:53;2.73;;;2.53;;
37097;SDS011;63608;49.572;12.348;2022-10-16T11:44:07;2.50;;;2.40;;
37097;SDS011;63608;49.572;12.348;2022-10-16T11:46:18;5.33;;;2.90;;
37097;SDS011;63608;49.572;12.348;2022-10-16T11:48:25;2.50;;;2.40;;
37097;SDS011;63608;49.572;12.348;2022-10-16T11:50:34;4.30;;;2.70;;
37097;SDS011;63608;49.572;12.348;2022-10-16T11:52:41;5.10;;;3.20;;
37097;SDS011;63608;49.572;12.348;2022-10-16T11:54:51;4.27;;;2.60;;
37097;SDS011;63608;49.572;12.348;2022-10-16T11:56:57;3.00;;;2.80;;
37097;SDS011;63608;49.572;12.348;2022-10-16T11:59:05;2.73;;;2.63;;
37097;SDS011;63608;49.572;12.348;2022-10-16T12:01:15;3.23;;;2.77;;
37097;SDS011;63608;49.572;12.348;2022-10-16T12:03:20;3.10;;;2.80;;
37097;SDS011;63608;49.572;12.348;2022-10-16T12:05:28;3.83;;;2.90;;
37097;SDS011;63608;49.572;12.348;2022-10-16T12:07:36;3.10;;;2.80;;
37097;SDS011;63608;49.572;12.348;2022-10-16T12:09:42;2.80;;;2.70;;
37097;SDS011;63608;49.572;12.348;2022-10-16T12:11:45;3.63;;;2.60;;
37097;SDS011;63608;49.572;12.348;2022-10-16T12:13:47;9.97;;;2.77;;
37097;SDS011;63608;49.572;12.348;2022-10-16T12:15:49;2.60;;;2.40;;
37097;SDS011;63608;49.572;12.348;2022-10-16T12:17:52;2.53;;;2.33;;
37097;SDS011;63608;49.572;12.348;2022-10-16T12:20:19;2.63;;;2.40;;
37097;SDS011;63608;49.572;12.348;2022-10-16T12:22:25;3.00;;;2.70;;
37097;SDS011;63608;49.572;12.348;2022-10-16T12:24:34;2.83;;;2.63;;
37097;SDS011;63608;49.572;12.348;2022-10-16T12:26:38;3.00;;;2.43;;
37097;SDS011;63608;49.572;12.348;2022-10-16T12:28:41;3.60;;;2.60;;
37097;SDS011;63608;49.572;12.348;2022-10-16T12:30:52;2.50;;;2.30;;